createdAt,value
2022-11-15T00:01:19.035Z,98561.91
2022-11-15T00:03:48.910Z,98569.56
2022-11-15T00:06:16.911Z,98568.06
2022-11-15T00:08:45.347Z,98561.81
2022-11-15T00:11:14.428Z,98556.44
2022-11-15T00:13:43.244Z,98556.13
2022-11-15T00:16:11.513Z,98553.88
2022-11-15T00:18:40.175Z,98549.03
2022-11-15T00:21:12.195Z,98551.00
2022-11-15T00:23:40.641Z,98551.41
2022-11-15T00:26:09.330Z,98539.63
2022-11-15T00:28:37.882Z,98540.13
2022-11-15T00:31:07.532Z,98544.84
2022-11-15T00:33:36.125Z,98546.06
2022-11-15T00:36:05.642Z,98538.69
2022-11-15T00:38:35.646Z,98532.88
2022-11-15T00:41:09.049Z,98532.69
2022-11-15T00:43:38.460Z,98523.06
2022-11-15T00:46:07.050Z,98518.59
2022-11-15T00:48:35.369Z,98522.03
2022-11-15T00:51:03.817Z,98517.47
2022-11-15T00:53:32.616Z,98509.19
2022-11-15T00:56:02.333Z,98510.22
2022-11-15T00:58:30.764Z,98513.91
2022-11-15T01:00:58.875Z,98512.31
2022-11-15T01:03:27.369Z,98503.06
2022-11-15T01:05:55.626Z,98513.78
2022-11-15T01:08:24.030Z,98512.72
2022-11-15T01:10:52.091Z,98513.03
2022-11-15T01:13:21.810Z,98502.47
2022-11-15T01:15:49.790Z,98505.38
2022-11-15T01:18:18.099Z,98500.97
2022-11-15T01:20:46.303Z,98492.25
2022-11-15T01:23:14.669Z,98502.09
2022-11-15T01:25:42.796Z,98498.31
2022-11-15T01:28:11.206Z,98484.69
2022-11-15T01:30:40.710Z,98480.94
2022-11-15T01:33:09.111Z,98485.75
2022-11-15T01:35:40.852Z,98479.38
2022-11-15T01:38:09.539Z,98473.75
2022-11-15T01:40:37.539Z,98475.78
2022-11-15T01:43:21.355Z,98469.19
2022-11-15T01:45:54.619Z,98467.59
2022-11-15T01:48:23.278Z,98470.50
2022-11-15T01:50:52.117Z,98468.31
2022-11-15T01:53:22.273Z,98471.34
2022-11-15T01:55:50.321Z,98466.25
2022-11-15T01:58:18.974Z,98452.06
2022-11-15T02:00:48.837Z,98456.41
2022-11-15T02:03:18.831Z,98446.41
2022-11-15T02:05:46.820Z,98445.53
2022-11-15T02:08:21.203Z,98442.25
2022-11-15T02:10:49.320Z,98437.59
2022-11-15T02:13:18.660Z,98436.25
2022-11-15T02:15:55.314Z,98437.66
2022-11-15T02:18:30.283Z,98435.97
2022-11-15T02:21:08.424Z,98434.09
2022-11-15T02:24:18.280Z,98431.25
2022-11-15T02:27:33.057Z,98425.28
2022-11-15T02:30:21.161Z,98422.16
2022-11-15T02:32:52.890Z,98428.34
2022-11-15T02:35:28.457Z,98421.03
2022-11-15T02:37:59.222Z,98425.72
2022-11-15T02:40:36.390Z,98422.75
2022-11-15T02:43:27.654Z,98416.94
2022-11-15T02:45:59.155Z,98416.69
2022-11-15T02:48:28.168Z,98412.69
2022-11-15T02:50:56.677Z,98412.47
2022-11-15T02:53:26.666Z,98405.34
2022-11-15T02:55:56.207Z,98396.91
2022-11-15T02:58:37.635Z,98400.84
2022-11-15T03:01:14.565Z,98398.97
2022-11-15T03:03:51.407Z,98397.00
2022-11-15T03:06:27.751Z,98398.00
2022-11-15T03:09:04.424Z,98393.63
2022-11-15T03:11:35.076Z,98394.59
2022-11-15T03:14:07.196Z,98395.66
2022-11-15T03:16:39.728Z,98395.16
2022-11-15T03:19:12.799Z,98390.56
2022-11-15T03:21:42.322Z,98393.56
2022-11-15T03:24:11.005Z,98388.84
2022-11-15T03:26:41.561Z,98381.75
2022-11-15T03:29:14.031Z,98382.09
2022-11-15T03:31:51.191Z,98377.41
2022-11-15T03:34:26.742Z,98379.34
2022-11-15T03:36:55.292Z,98367.38
2022-11-15T03:39:24.270Z,98364.00
2022-11-15T03:41:59.458Z,98359.75
2022-11-15T03:44:37.293Z,98362.97
2022-11-15T03:47:11.187Z,98360.56
2022-11-15T03:49:41.685Z,98351.06
2022-11-15T03:52:12.321Z,98346.19
2022-11-15T03:54:50.298Z,98345.47
2022-11-15T03:57:18.847Z,98342.56
2022-11-15T03:59:46.881Z,98341.06
2022-11-15T04:02:17.628Z,98344.72
2022-11-15T04:04:45.693Z,98338.41
2022-11-15T04:07:14.571Z,98335.88
2022-11-15T04:09:57.223Z,98332.88
2022-11-15T04:12:31.841Z,98324.81
2022-11-15T04:15:19.130Z,98323.78
2022-11-15T04:17:50.422Z,98321.75
2022-11-15T04:20:37.518Z,98326.03
2022-11-15T04:23:25.217Z,98319.97
2022-11-15T04:25:54.402Z,98319.75
2022-11-15T04:28:23.005Z,98320.69
2022-11-15T04:30:51.049Z,98312.78
2022-11-15T04:33:21.128Z,98314.53
2022-11-15T04:36:09.479Z,98304.34
2022-11-15T04:38:38.643Z,98310.75
2022-11-15T04:41:06.809Z,98302.69
2022-11-15T04:43:35.444Z,98298.03
2022-11-15T04:46:03.600Z,98304.59
2022-11-15T04:48:33.490Z,98300.72
2022-11-15T04:51:01.578Z,98299.94
2022-11-15T04:53:30.416Z,98299.75
2022-11-15T04:55:58.891Z,98300.13
2022-11-15T04:58:27.217Z,98307.38
2022-11-15T05:00:55.359Z,98289.53
2022-11-15T05:03:41.393Z,98278.28
2022-11-15T05:06:10.987Z,98282.59
2022-11-15T05:08:39.409Z,98283.94
2022-11-15T05:11:07.859Z,98272.06
2022-11-15T05:13:36.254Z,98278.78
2022-11-15T05:16:04.486Z,98276.31
2022-11-15T05:18:32.906Z,98274.13
2022-11-15T05:21:05.498Z,98278.75
2022-11-15T05:23:35.646Z,98267.84
2022-11-15T05:26:08.988Z,98271.22
2022-11-15T05:28:38.210Z,98272.06
2022-11-15T05:31:07.983Z,98266.69
2022-11-15T05:33:36.902Z,98257.97
2022-11-15T05:36:07.617Z,98257.91
2022-11-15T05:38:37.704Z,98251.66
2022-11-15T05:41:06.743Z,98244.44
2022-11-15T05:43:37.668Z,98247.72
2022-11-15T05:46:07.032Z,98243.81
2022-11-15T05:48:36.613Z,98246.69
2022-11-15T05:51:05.050Z,98240.75
2022-11-15T05:53:34.007Z,98244.03
2022-11-15T05:56:04.801Z,98246.44
2022-11-15T05:58:33.295Z,98248.25
2022-11-15T06:01:01.954Z,98242.84
2022-11-15T06:03:30.717Z,98240.56
2022-11-15T06:05:59.215Z,98245.38
2022-11-15T06:08:27.581Z,98238.84
2022-11-15T06:10:55.898Z,98237.16
2022-11-15T06:13:25.700Z,98233.09
2022-11-15T06:15:57.578Z,98244.97
2022-11-15T06:18:26.035Z,98245.44
2022-11-15T06:20:54.224Z,98242.72
2022-11-15T06:23:22.594Z,98247.44
2022-11-15T06:25:50.858Z,98249.38
2022-11-15T06:28:19.155Z,98250.28
2022-11-15T06:30:52.987Z,98249.28
2022-11-15T06:33:21.803Z,98250.19
2022-11-15T06:35:49.962Z,98255.16
2022-11-15T06:38:18.429Z,98257.63
2022-11-15T06:40:46.434Z,98263.75
2022-11-15T06:43:15.725Z,98262.19
2022-11-15T06:45:43.857Z,98266.91
2022-11-15T06:48:13.649Z,98273.94
2022-11-15T06:50:41.683Z,98277.16
2022-11-15T06:53:10.157Z,98273.44
2022-11-15T06:55:39.772Z,98274.09
2022-11-15T06:58:08.156Z,98273.28
2022-11-15T07:00:36.250Z,98273.03
2022-11-15T07:03:05.097Z,98278.56
2022-11-15T07:05:34.492Z,98278.88
2022-11-15T07:08:03.013Z,98272.31
2022-11-15T07:10:31.089Z,98271.75
2022-11-15T07:12:59.469Z,98264.41
2022-11-15T07:15:28.029Z,98265.28
2022-11-15T07:17:56.568Z,98266.94
2022-11-15T07:20:24.812Z,98266.97
2022-11-15T07:23:01.972Z,98264.75
2022-11-15T07:25:30.077Z,98257.94
2022-11-15T07:27:58.907Z,98252.56
2022-11-15T07:30:27.905Z,98254.69
2022-11-15T07:32:56.468Z,98251.88
2022-11-15T07:35:24.984Z,98253.88
2022-11-15T07:37:58.800Z,98247.88
2022-11-15T07:40:27.431Z,98237.22
2022-11-15T07:43:01.689Z,98243.63
2022-11-15T07:45:29.750Z,98245.44
2022-11-15T07:47:58.385Z,98246.25
2022-11-15T07:50:26.484Z,98248.84
2022-11-15T07:53:00.468Z,98238.28
2022-11-15T07:55:30.726Z,98240.38
2022-11-15T07:58:03.409Z,98243.22
2022-11-15T08:00:31.922Z,98228.47
2022-11-15T08:03:04.653Z,98237.34
2022-11-15T08:05:33.188Z,98226.81
2022-11-15T08:08:03.058Z,98225.66
2022-11-15T08:10:34.225Z,98219.75
2022-11-15T08:13:07.699Z,98221.25
2022-11-15T08:15:37.028Z,98218.13
2022-11-15T08:18:07.167Z,98217.31
2022-11-15T08:20:35.252Z,98223.22
2022-11-15T08:23:06.448Z,98216.59
2022-11-15T08:25:35.916Z,98215.56
2022-11-15T08:28:05.676Z,98208.72
2022-11-15T08:30:37.366Z,98219.06
2022-11-15T08:33:06.087Z,98215.31
2022-11-15T08:35:34.214Z,98211.06
2022-11-15T08:38:04.135Z,98216.75
2022-11-15T08:40:32.250Z,98209.47
2022-11-15T08:43:03.659Z,98210.38
2022-11-15T08:45:32.071Z,98207.59
2022-11-15T08:48:03.120Z,98205.56
2022-11-15T08:50:31.167Z,98208.84
2022-11-15T08:52:59.792Z,98200.16
2022-11-15T08:55:29.484Z,98198.97
2022-11-15T08:57:59.314Z,98205.41
2022-11-15T09:00:27.587Z,98204.50
2022-11-15T09:02:55.984Z,98200.06
2022-11-15T09:05:24.125Z,98195.34
2022-11-15T09:07:55.152Z,98194.56
2022-11-15T09:10:23.303Z,98190.94
2022-11-15T09:12:53.193Z,98198.00
2022-11-15T09:15:21.882Z,98191.69
2022-11-15T09:17:50.307Z,98188.00
2022-11-15T09:20:18.710Z,98186.47
2022-11-15T09:22:47.213Z,98178.13
2022-11-15T09:25:15.758Z,98175.00
2022-11-15T09:27:44.095Z,98155.44
2022-11-15T09:30:14.766Z,98154.06
2022-11-15T09:32:43.142Z,98150.38
2022-11-15T09:35:11.380Z,98149.81
2022-11-15T09:37:39.871Z,98148.75
2022-11-15T09:40:10.568Z,98141.19
2022-11-15T09:42:51.145Z,98128.69
2022-11-15T09:45:23.172Z,98128.38
2022-11-15T09:48:01.843Z,98123.69
2022-11-15T09:50:36.665Z,98125.38
2022-11-15T09:53:05.298Z,98120.13
2022-11-15T09:55:39.916Z,98108.81
2022-11-15T09:58:16.182Z,98109.78
2022-11-15T10:00:49.708Z,98102.41
2022-11-15T10:03:20.431Z,98088.31
2022-11-15T10:05:50.822Z,98091.13
2022-11-15T10:08:23.544Z,98077.56
2022-11-15T10:11:09.616Z,98076.13
2022-11-15T10:13:42.712Z,98070.25
2022-11-15T10:16:26.960Z,98064.91
2022-11-15T10:19:02.333Z,98069.41
2022-11-15T10:21:36.628Z,98068.69
2022-11-15T10:24:12.840Z,98073.81
2022-11-15T10:26:41.389Z,98069.28
2022-11-15T10:29:09.685Z,98063.19
2022-11-15T10:31:41.755Z,98058.03
2022-11-15T10:34:15.152Z,98056.84
2022-11-15T10:36:50.288Z,98063.16
2022-11-15T10:39:18.907Z,98055.22
2022-11-15T10:41:47.162Z,98057.59
2022-11-15T10:44:29.300Z,98051.41
2022-11-15T10:47:24.056Z,98054.75
2022-11-15T10:50:00.575Z,98051.78
2022-11-15T10:52:29.529Z,98056.50
2022-11-15T10:54:59.862Z,98046.97
2022-11-15T10:57:29.801Z,98044.06
2022-11-15T11:00:00.749Z,98031.19
2022-11-15T11:02:31.564Z,98038.88
2022-11-15T11:05:00.778Z,98031.03
2022-11-15T11:07:30.520Z,98029.66
2022-11-15T11:10:00.574Z,98025.25
2022-11-15T11:12:33.505Z,98034.31
2022-11-15T11:15:03.490Z,98028.81
2022-11-15T11:17:43.132Z,98030.16
2022-11-15T11:20:19.597Z,98023.09
2022-11-15T11:23:00.527Z,98030.69
2022-11-15T11:25:35.390Z,98027.09
2022-11-15T11:28:25.780Z,98018.59
2022-11-15T11:31:02.904Z,98016.59
2022-11-15T11:33:34.995Z,98000.44
2022-11-15T11:36:12.183Z,98002.66
2022-11-15T11:38:49.525Z,97997.25
2022-11-15T11:41:26.543Z,97998.69
2022-11-15T11:44:01.932Z,98001.59
2022-11-15T11:46:50.625Z,97992.03
2022-11-15T11:49:24.119Z,97981.19
2022-11-15T11:51:57.628Z,97974.78
2022-11-15T11:54:28.984Z,97984.09
2022-11-15T11:56:59.486Z,97979.72
2022-11-15T11:59:34.371Z,97975.44
2022-11-15T12:02:05.044Z,97966.00
2022-11-15T12:04:39.948Z,97961.28
2022-11-15T12:07:13.465Z,97971.41
2022-11-15T12:09:43.977Z,97963.66
2022-11-15T12:12:17.709Z,97957.94
2022-11-15T12:14:49.049Z,97951.81
2022-11-15T12:17:20.173Z,97943.19
2022-11-15T12:19:49.661Z,97946.97
2022-11-15T12:22:22.099Z,97944.75
2022-11-15T12:24:54.588Z,97949.41
2022-11-15T12:27:31.555Z,97949.41
2022-11-15T12:30:02.735Z,97939.97
2022-11-15T12:32:33.902Z,97944.03
2022-11-15T12:35:04.818Z,97948.03
2022-11-15T12:37:46.851Z,97938.44
2022-11-15T12:40:35.421Z,97940.22
2022-11-15T12:43:42.804Z,97931.59
2022-11-15T12:46:15.811Z,97937.91
2022-11-15T12:48:50.311Z,97935.41
2022-11-15T12:51:22.501Z,97921.63
2022-11-15T12:53:51.296Z,97925.41
2022-11-15T12:56:26.663Z,97924.84
2022-11-15T12:58:57.874Z,97914.50
2022-11-15T13:02:00.404Z,97914.69
2022-11-15T13:04:31.141Z,97906.75
2022-11-15T13:07:02.358Z,97906.19
2022-11-15T13:09:53.519Z,97900.59
2022-11-15T13:12:57.016Z,97899.78
2022-11-15T13:15:43.011Z,97895.66
2022-11-15T13:18:35.345Z,97899.13
2022-11-15T13:21:27.261Z,97898.09
2022-11-15T13:23:57.650Z,97895.56
2022-11-15T13:26:26.615Z,97892.09
2022-11-15T13:28:56.480Z,97891.59
2022-11-15T13:31:30.998Z,97881.03
2022-11-15T13:34:02.516Z,97892.22
2022-11-15T13:36:34.293Z,97878.56
2022-11-15T13:39:05.651Z,97887.91
2022-11-15T13:41:35.479Z,97880.75
2022-11-15T13:44:04.908Z,97879.91
2022-11-15T13:46:34.767Z,97873.88
2022-11-15T13:49:04.347Z,97878.50
2022-11-15T13:51:37.904Z,97869.63
2022-11-15T13:54:14.974Z,97873.56
2022-11-15T13:56:45.434Z,97867.97
2022-11-15T13:59:17.892Z,97869.50
2022-11-15T14:01:46.501Z,97868.09
2022-11-15T14:04:16.255Z,97858.53
2022-11-15T14:06:49.572Z,97858.94
2022-11-15T14:09:36.625Z,97858.88
2022-11-15T14:12:24.739Z,97858.19
2022-11-15T14:14:53.191Z,97861.28
2022-11-15T14:17:24.754Z,97854.44
2022-11-15T14:19:53.401Z,97854.66
2022-11-15T14:22:23.678Z,97851.97
2022-11-15T14:25:17.333Z,97851.81
2022-11-15T14:27:47.404Z,97853.47
2022-11-15T14:30:16.973Z,97856.28
2022-11-15T14:32:47.625Z,97845.03
2022-11-15T14:35:17.573Z,97851.63
2022-11-15T14:37:46.030Z,97841.13
2022-11-15T14:40:18.255Z,97838.00
2022-11-15T14:42:47.849Z,97842.09
2022-11-15T14:45:18.127Z,97830.47
2022-11-15T14:47:46.765Z,97827.44
2022-11-15T14:50:15.996Z,97823.63
2022-11-15T14:52:44.788Z,97823.13
2022-11-15T14:55:19.664Z,97815.47
2022-11-15T14:57:48.180Z,97812.34
2022-11-15T15:00:17.123Z,97811.53
2022-11-15T15:02:47.244Z,97805.34
2022-11-15T15:05:17.329Z,97801.38
2022-11-15T15:07:45.850Z,97799.06
2022-11-15T15:10:38.947Z,97806.34
2022-11-15T15:13:05.627Z,97800.97
2022-11-15T15:15:35.206Z,97806.72
2022-11-15T15:18:05.667Z,97801.91
2022-11-15T15:20:34.095Z,97795.94
2022-11-15T15:23:02.448Z,97796.19
2022-11-15T15:25:31.430Z,97805.59
2022-11-15T15:28:00.013Z,97795.03
2022-11-15T15:30:31.193Z,97796.09
2022-11-15T15:32:59.374Z,97786.69
2022-11-15T15:35:31.342Z,97792.19
2022-11-15T15:37:59.954Z,97777.72
2022-11-15T15:40:30.648Z,97781.72
2022-11-15T15:42:59.025Z,97788.28
2022-11-15T15:45:29.277Z,97785.81
2022-11-15T15:47:57.997Z,97786.00
2022-11-15T15:50:27.617Z,97777.69
2022-11-15T15:52:57.105Z,97784.53
2022-11-15T15:55:25.740Z,97779.84
2022-11-15T15:57:54.393Z,97777.72
2022-11-15T16:00:24.570Z,97780.47
2022-11-15T16:02:54.888Z,97779.19
2022-11-15T16:05:23.678Z,97781.19
2022-11-15T16:07:52.377Z,97789.16
2022-11-15T16:10:24.078Z,97783.94
2022-11-15T16:12:53.187Z,97788.03
2022-11-15T16:15:22.156Z,97789.19
2022-11-15T16:17:52.536Z,97784.47
2022-11-15T16:20:32.285Z,97784.47
2022-11-15T16:23:05.781Z,97785.41
2022-11-15T16:25:39.460Z,97792.25
2022-11-15T16:28:15.573Z,97789.97
2022-11-15T16:30:43.711Z,97791.25
2022-11-15T16:33:13.988Z,97796.44
2022-11-15T16:35:43.560Z,97796.78
2022-11-15T16:38:15.914Z,97781.88
2022-11-15T16:40:44.445Z,97782.31
2022-11-15T16:43:13.222Z,97788.94
2022-11-15T16:45:41.409Z,97785.84
2022-11-15T16:48:21.648Z,97777.97
2022-11-15T16:50:51.330Z,97773.25
2022-11-15T16:53:19.742Z,97780.03
2022-11-15T16:55:48.016Z,97775.81
2022-11-15T16:58:16.367Z,97781.13
2022-11-15T17:00:44.559Z,97777.72
2022-11-15T17:03:13.100Z,97770.25
2022-11-15T17:05:41.316Z,97772.38
2022-11-15T17:08:11.017Z,97772.09
2022-11-15T17:10:41.279Z,97764.97
2022-11-15T17:13:10.244Z,97763.50
2022-11-15T17:15:38.401Z,97766.38
2022-11-15T17:18:07.575Z,97758.97
2022-11-15T17:20:35.661Z,97753.00
2022-11-15T17:23:04.006Z,97754.88
2022-11-15T17:25:33.475Z,97749.25
2022-11-15T17:28:02.085Z,97757.47
2022-11-15T17:30:30.317Z,97749.75
2022-11-15T17:32:58.610Z,97750.22
2022-11-15T17:35:29.740Z,97743.88
2022-11-15T17:37:57.980Z,97741.50
2022-11-15T17:40:26.311Z,97738.47
2022-11-15T17:42:57.138Z,97738.38
2022-11-15T17:45:25.243Z,97731.00
2022-11-15T17:47:53.886Z,97725.16
2022-11-15T17:50:22.023Z,97723.47
2022-11-15T17:52:50.391Z,97718.09
2022-11-15T17:55:18.593Z,97714.19
2022-11-15T17:57:46.994Z,97709.59
2022-11-15T18:00:19.684Z,97711.78
2022-11-15T18:02:48.227Z,97708.22
2022-11-15T18:05:16.387Z,97705.06
2022-11-15T18:07:44.885Z,97696.75
2022-11-15T18:10:13.040Z,97698.31
2022-11-15T18:12:42.391Z,97692.06
2022-11-15T18:15:10.735Z,97688.00
2022-11-15T18:17:40.542Z,97689.78
2022-11-15T18:20:10.211Z,97677.50
2022-11-15T18:22:38.631Z,97680.78
2022-11-15T18:25:07.382Z,97675.38
2022-11-15T18:27:35.828Z,97671.41
2022-11-15T18:30:03.875Z,97670.16
2022-11-15T18:32:32.356Z,97666.09
2022-11-15T18:35:01.959Z,97680.03
2022-11-15T18:37:30.972Z,97669.50
2022-11-15T18:39:59.030Z,97673.56
2022-11-15T18:42:27.517Z,97688.09
2022-11-15T18:44:55.671Z,97680.59
2022-11-15T18:47:24.112Z,97691.19
2022-11-15T18:49:52.281Z,97688.31
2022-11-15T18:52:22.723Z,97693.44
2022-11-15T18:54:50.929Z,97695.47
2022-11-15T18:57:19.363Z,97679.66
2022-11-15T18:59:47.500Z,97680.00
2022-11-15T19:02:15.869Z,97683.72
2022-11-15T19:04:43.971Z,97683.72
2022-11-15T19:07:12.383Z,97685.94
2022-11-15T19:09:41.984Z,97689.63
2022-11-15T19:12:10.295Z,97682.91
2022-11-15T19:14:38.533Z,97683.25
2022-11-15T19:17:07.071Z,97681.94
2022-11-15T19:19:35.164Z,97683.25
2022-11-15T19:22:03.582Z,97679.84
2022-11-15T19:24:31.908Z,97680.78
2022-11-15T19:27:01.719Z,97686.50
2022-11-15T19:29:29.934Z,97678.66
2022-11-15T19:31:58.455Z,97677.66
2022-11-15T19:34:26.603Z,97674.53
2022-11-15T19:36:55.264Z,97671.44
2022-11-15T19:39:23.383Z,97670.97
2022-11-15T19:41:51.879Z,97676.78
2022-11-15T19:44:22.858Z,97671.22
2022-11-15T19:46:51.296Z,97679.50
2022-11-15T19:49:19.789Z,97673.44
2022-11-15T19:51:48.563Z,97668.84
2022-11-15T19:54:17.371Z,97673.66
2022-11-15T19:56:45.775Z,97663.66
2022-11-15T19:59:14.363Z,97654.16
2022-11-15T20:01:44.221Z,97656.66
2022-11-15T20:04:12.350Z,97652.22
2022-11-15T20:06:42.819Z,97646.22
2022-11-15T20:09:13.894Z,97647.28
2022-11-15T20:11:42.213Z,97643.59
2022-11-15T20:14:11.774Z,97644.91
2022-11-15T20:16:40.501Z,97637.31
2022-11-15T20:19:10.064Z,97631.44
2022-11-15T20:21:38.478Z,97635.69
2022-11-15T20:24:07.678Z,97632.34
2022-11-15T20:26:36.122Z,97630.00
2022-11-15T20:29:04.331Z,97627.03
2022-11-15T20:31:32.901Z,97628.56
2022-11-15T20:34:01.296Z,97629.88
2022-11-15T20:36:31.221Z,97634.03
2022-11-15T20:39:00.268Z,97622.81
2022-11-15T20:41:28.725Z,97630.84
2022-11-15T20:43:56.903Z,97628.88
2022-11-15T20:46:25.296Z,97621.03
2022-11-15T20:48:53.427Z,97618.75
2022-11-15T20:51:21.911Z,97623.88
2022-11-15T20:53:51.538Z,97620.75
2022-11-15T20:56:21.038Z,97623.94
2022-11-15T20:58:50.530Z,97616.81
2022-11-15T21:01:23.753Z,97619.72
2022-11-15T21:03:52.725Z,97619.09
2022-11-15T21:06:21.519Z,97624.22
2022-11-15T21:09:09.136Z,97619.53
2022-11-15T21:11:55.682Z,97610.47
2022-11-15T21:14:23.940Z,97608.88
2022-11-15T21:16:52.336Z,97604.03
2022-11-15T21:19:25.702Z,97612.28
2022-11-15T21:21:56.375Z,97599.66
2022-11-15T21:24:26.847Z,97597.63
2022-11-15T21:26:55.894Z,97595.84
2022-11-15T21:29:24.065Z,97598.06
2022-11-15T21:31:53.339Z,97589.06
2022-11-15T21:34:21.926Z,97580.00
2022-11-15T21:36:50.374Z,97581.25
2022-11-15T21:39:18.425Z,97575.16
2022-11-15T21:41:48.111Z,97586.03
2022-11-15T21:44:16.185Z,97581.94
2022-11-15T21:46:44.604Z,97573.19
2022-11-15T21:49:12.841Z,97577.09
2022-11-15T21:51:41.279Z,97570.13
2022-11-15T21:54:09.488Z,97572.72
2022-11-15T21:56:38.323Z,97571.91
2022-11-15T21:59:07.925Z,97570.47
2022-11-15T22:01:53.965Z,97569.97
2022-11-15T22:04:24.141Z,97568.84
2022-11-15T22:06:52.853Z,97565.56
2022-11-15T22:09:21.076Z,97565.38
2022-11-15T22:11:49.528Z,97555.03
2022-11-15T22:14:19.203Z,97555.41
2022-11-15T22:16:47.637Z,97556.47
2022-11-15T22:19:15.884Z,97541.59
2022-11-15T22:21:44.209Z,97540.13
2022-11-15T22:24:12.654Z,97540.56
2022-11-15T22:26:41.104Z,97535.28
2022-11-15T22:29:09.174Z,97537.22
2022-11-15T22:31:39.103Z,97531.81
2022-11-15T22:34:07.171Z,97532.31
2022-11-15T22:36:52.300Z,97525.41
2022-11-15T22:39:23.861Z,97518.78
2022-11-15T22:41:53.507Z,97518.28
2022-11-15T22:44:22.236Z,97504.69
2022-11-15T22:46:52.052Z,97505.09
2022-11-15T22:49:20.132Z,97497.56
2022-11-15T22:51:51.593Z,97501.81
2022-11-15T22:54:19.704Z,97496.44
2022-11-15T22:56:48.538Z,97498.38
2022-11-15T22:59:16.716Z,97496.94
2022-11-15T23:01:45.197Z,97489.69
2022-11-15T23:04:14.628Z,97488.16
2022-11-15T23:06:43.180Z,97493.13
2022-11-15T23:09:11.518Z,97486.34
2022-11-15T23:11:57.551Z,97488.28
2022-11-15T23:14:25.854Z,97479.25
2022-11-15T23:16:54.287Z,97474.56
2022-11-15T23:19:24.128Z,97469.03
2022-11-15T23:22:10.218Z,97465.19
2022-11-15T23:24:38.487Z,97463.06
2022-11-15T23:27:08.648Z,97456.13
2022-11-15T23:29:58.464Z,97459.19
2022-11-15T23:32:44.611Z,97456.53
2022-11-15T23:35:14.154Z,97449.03
2022-11-15T23:37:42.615Z,97455.13
2022-11-15T23:40:12.396Z,97459.03
2022-11-15T23:42:40.789Z,97451.88
2022-11-15T23:45:09.467Z,97443.66
2022-11-15T23:47:37.880Z,97453.38
2022-11-15T23:50:06.840Z,97449.84
2022-11-15T23:52:36.563Z,97446.41
2022-11-15T23:55:05.025Z,97457.56
2022-11-15T23:57:33.373Z,97440.09
